Time;durP1;ratioP1;P1;durP2;ratioP2;P2;SDS_P1;SDS_P2;PMS_P1;PMS_P2;Temp;Humidity;BMP_temperature;BMP_pressure;BME280_temperature;BME280_humidity;BME280_pressure;Samples;Min_cycle;Max_cycle;Signal;HPM_P1;HPM_P2
2021/11/30 00:01:27;;;;;;;5.55;3.45;;;2.50;99.90;;;;;;5093818;28;20020;-84
2021/11/30 00:03:53;;;;;;;4.32;3.10;;;2.50;99.90;;;;;;5075632;28;20080;-85
2021/11/30 00:06:19;;;;;;;5.50;3.15;;;2.50;99.90;;;;;;5094392;28;20095;-84
2021/11/30 00:08:47;;;;;;;4.32;3.25;;;2.60;99.90;;;;;;5095028;28;20032;-84
2021/11/30 00:11:13;;;;;;;3.30;2.78;;;2.50;99.90;;;;;;5094127;28;20020;-84
2021/11/30 00:13:40;;;;;;;4.38;2.97;;;2.50;99.90;;;;;;5075468;28;20077;-84
2021/11/30 00:16:07;;;;;;;4.75;2.80;;;2.50;99.90;;;;;;5093578;28;20024;-84
2021/11/30 00:18:34;;;;;;;4.28;2.80;;;2.60;99.90;;;;;;5075423;28;20456;-84
2021/11/30 00:21:01;;;;;;;5.30;2.70;;;2.60;99.90;;;;;;5093493;28;20442;-84
2021/11/30 00:23:27;;;;;;;5.22;2.80;;;2.50;99.90;;;;;;5075382;28;20020;-84
2021/11/30 00:25:53;;;;;;;4.65;2.55;;;2.50;99.90;;;;;;5075392;28;20020;-84
2021/11/30 00:28:19;;;;;;;3.85;2.38;;;2.50;99.90;;;;;;5093437;28;20493;-85
2021/11/30 00:30:44;;;;;;;4.70;2.60;;;2.60;99.90;;;;;;5075274;28;20371;-85
2021/11/30 00:33:10;;;;;;;3.05;2.42;;;2.40;99.90;;;;;;5075146;28;20031;-85
2021/11/30 00:35:36;;;;;;;4.47;2.35;;;2.50;99.90;;;;;;5093336;28;20020;-85
2021/11/30 00:38:04;;;;;;;3.03;2.45;;;2.50;99.90;;;;;;5071676;28;20055;-84
2021/11/30 00:40:29;;;;;;;4.15;2.40;;;2.50;99.90;;;;;;5088378;28;20025;-85
2021/11/30 00:42:57;;;;;;;4.85;2.40;;;2.60;99.90;;;;;;5088644;28;20365;-86
2021/11/30 00:45:25;;;;;;;2.40;2.10;;;2.50;99.90;;;;;;5088653;28;20029;-85
2021/11/30 00:47:58;;;;;;;3.72;2.25;;;2.50;99.90;;;;;;5088568;28;20119;-85
2021/11/30 00:50:27;;;;;;;4.05;2.55;;;2.40;99.90;;;;;;5088680;28;20086;-84
2021/11/30 00:52:54;;;;;;;5.78;2.28;;;2.40;99.90;;;;;;5088458;28;20119;-84
2021/11/30 00:55:20;;;;;;;3.20;2.10;;;2.50;99.90;;;;;;5088550;28;20020;-85
2021/11/30 00:57:47;;;;;;;2.45;1.83;;;2.40;99.90;;;;;;5088500;28;20384;-84
2021/11/30 01:00:16;;;;;;;3.00;2.10;;;2.40;99.90;;;;;;5072913;28;20017;-84
2021/11/30 01:02:42;;;;;;;4.50;2.20;;;2.40;99.90;;;;;;5088499;28;20107;-84
2021/11/30 01:05:10;;;;;;;4.78;2.40;;;2.30;99.90;;;;;;5072887;28;20025;-84
2021/11/30 01:07:36;;;;;;;2.92;2.17;;;2.40;99.90;;;;;;5072870;28;20390;-84
2021/11/30 01:10:12;;;;;;;5.05;2.08;;;2.30;99.90;;;;;;5073084;28;20028;-83
2021/11/30 01:12:38;;;;;;;2.50;2.00;;;2.30;99.90;;;;;;5088330;28;20032;-84
2021/11/30 01:15:08;;;;;;;3.22;2.00;;;2.40;99.90;;;;;;5072746;28;20055;-83
2021/11/30 01:17:34;;;;;;;2.95;2.03;;;2.20;99.90;;;;;;5088351;28;20042;-84
2021/11/30 01:20:00;;;;;;;3.50;2.03;;;2.20;99.90;;;;;;5088226;28;20115;-83
2021/11/30 01:22:25;;;;;;;3.65;2.20;;;2.20;99.90;;;;;;5072701;28;20021;-84
2021/11/30 01:24:51;;;;;;;5.32;2.28;;;2.10;99.90;;;;;;5073256;28;20031;-84
2021/11/30 01:27:17;;;;;;;3.60;2.00;;;2.10;99.90;;;;;;5072677;28;20032;-82
2021/11/30 01:29:43;;;;;;;3.05;2.08;;;2.10;99.90;;;;;;5072643;28;20495;-84
2021/11/30 01:32:09;;;;;;;4.40;1.90;;;2.10;99.90;;;;;;5072537;28;20021;-83
2021/11/30 01:34:35;;;;;;;4.80;2.38;;;2.10;99.90;;;;;;5072632;28;20020;-83
2021/11/30 01:37:01;;;;;;;3.78;2.10;;;2.10;99.90;;;;;;5077191;28;20042;-83
2021/11/30 01:39:27;;;;;;;6.63;2.13;;;2.20;99.90;;;;;;5074582;28;20058;-84
2021/11/30 01:41:54;;;;;;;3.85;2.17;;;2.10;99.90;;;;;;5074601;28;20058;-83
2021/11/30 01:44:36;;;;;;;5.15;2.28;;;2.10;99.90;;;;;;5074588;28;20024;-83
2021/11/30 01:49:34;;;;;;;4.50;1.80;;;2.10;99.90;;;;;;5092873;28;20020;-83
2021/11/30 01:52:03;;;;;;;3.17;2.00;;;2.00;99.90;;;;;;5094071;28;20024;-83
2021/11/30 01:54:28;;;;;;;4.72;2.13;;;2.10;99.90;;;;;;5096308;28;20032;-85
2021/11/30 01:56:56;;;;;;;4.03;2.00;;;2.10;99.90;;;;;;5078039;28;20036;-84
2021/11/30 01:59:21;;;;;;;5.20;2.17;;;2.00;99.90;;;;;;5096468;28;20016;-82
2021/11/30 02:01:47;;;;;;;4.88;2.03;;;1.90;99.90;;;;;;5096179;28;20429;-85
2021/11/30 02:04:14;;;;;;;3.78;2.30;;;2.00;99.90;;;;;;5077892;28;20024;-84
2021/11/30 02:06:40;;;;;;;5.45;2.40;;;2.00;99.90;;;;;;5077792;28;20020;-83
2021/11/30 02:09:06;;;;;;;8.52;2.42;;;2.00;99.90;;;;;;5078657;28;20035;-85
2021/11/30 02:11:31;;;;;;;4.00;2.38;;;1.90;99.90;;;;;;5077689;28;20434;-84
2021/11/30 02:13:57;;;;;;;5.28;2.40;;;1.90;99.90;;;;;;5077789;28;20082;-85
2021/11/30 02:16:23;;;;;;;5.65;2.30;;;1.90;99.90;;;;;;5077795;28;20024;-84
2021/11/30 02:18:52;;;;;;;6.95;2.30;;;1.90;99.90;;;;;;5096161;28;20035;-83
2021/11/30 02:21:20;;;;;;;7.70;2.22;;;1.90;99.90;;;;;;5079033;28;20023;-83
2021/11/30 02:23:58;;;;;;;3.55;1.95;;;1.80;99.90;;;;;;5078018;28;20085;-83
2021/11/30 02:26:24;;;;;;;7.68;2.55;;;1.90;99.90;;;;;;5077701;28;20054;-84
2021/11/30 02:28:51;;;;;;;6.68;2.55;;;2.00;99.90;;;;;;5095653;28;20475;-85
2021/11/30 02:31:20;;;;;;;3.63;2.17;;;2.00;99.90;;;;;;5095657;28;20387;-86
2021/11/30 02:33:46;;;;;;;2.65;2.30;;;2.00;99.90;;;;;;5077387;28;20021;-85
2021/11/30 02:36:17;;;;;;;3.92;2.28;;;2.10;99.90;;;;;;5077394;28;20119;-82
2021/11/30 02:38:43;;;;;;;6.25;2.40;;;2.00;99.90;;;;;;5077202;28;20093;-84
2021/11/30 02:41:09;;;;;;;5.85;2.33;;;1.90;99.90;;;;;;5077175;28;20028;-84
2021/11/30 02:43:35;;;;;;;3.53;2.00;;;1.90;99.90;;;;;;5095315;28;20103;-85
2021/11/30 02:46:00;;;;;;;7.47;2.03;;;1.90;99.90;;;;;;5095294;28;20028;-85
2021/11/30 02:48:26;;;;;;;5.88;2.50;;;1.90;99.90;;;;;;5077076;28;20020;-84
2021/11/30 02:50:52;;;;;;;6.38;1.98;;;1.90;99.90;;;;;;5077133;28;20108;-83
2021/11/30 02:53:21;;;;;;;4.45;2.08;;;1.90;99.90;;;;;;5076921;28;20020;-84
2021/11/30 02:55:47;;;;;;;5.38;2.00;;;1.90;99.90;;;;;;5095405;28;20046;-84
2021/11/30 02:58:14;;;;;;;2.30;1.90;;;2.00;99.90;;;;;;5076921;28;20069;-83
2021/11/30 03:00:40;;;;;;;3.47;1.80;;;2.10;99.90;;;;;;5076859;28;20020;-83
2021/11/30 03:03:06;;;;;;;5.07;2.08;;;2.10;99.90;;;;;;5094801;28;20095;-84
2021/11/30 03:05:33;;;;;;;4.03;2.45;;;2.10;99.90;;;;;;5076813;28;20496;-83
2021/11/30 03:07:58;;;;;;;2.97;1.63;;;2.00;99.90;;;;;;5076809;28;20050;-82
2021/11/30 03:10:25;;;;;;;2.67;1.90;;;2.00;99.90;;;;;;5076710;28;20028;-84
2021/11/30 03:12:52;;;;;;;36.47;11.73;;;1.90;99.90;;;;;;5077138;28;20027;-82
2021/11/30 03:15:23;;;;;;;4.28;1.83;;;1.90;99.90;;;;;;5076583;28;20452;-84
2021/11/30 03:17:49;;;;;;;6.68;2.05;;;1.80;99.90;;;;;;5095094;28;20069;-82
2021/11/30 03:20:16;;;;;;;4.70;2.28;;;1.80;99.90;;;;;;5094914;28;20058;-83
2021/11/30 03:22:43;;;;;;;3.45;1.90;;;1.70;99.90;;;;;;5076444;28;20035;-85
2021/11/30 03:25:10;;;;;;;4.85;2.08;;;1.70;99.90;;;;;;5076343;28;20077;-83
2021/11/30 03:27:36;;;;;;;9.48;2.25;;;1.60;99.90;;;;;;5076306;28;20028;-82
2021/11/30 03:30:08;;;;;;;9.70;2.08;;;1.70;99.90;;;;;;5076276;28;20031;-82
2021/11/30 03:35:09;;;;;;;5.20;2.13;;;1.60;99.90;;;;;;5094413;28;20487;-81
2021/11/30 03:37:35;;;;;;;7.20;2.17;;;1.70;99.90;;;;;;5094139;28;20105;-83
2021/11/30 03:40:02;;;;;;;5.47;2.28;;;1.60;99.90;;;;;;5076090;28;20031;-82
2021/11/30 03:42:27;;;;;;;5.80;2.10;;;1.70;99.90;;;;;;5094234;28;20028;-82
2021/11/30 03:44:54;;;;;;;5.50;2.25;;;1.70;99.90;;;;;;5094456;28;20495;-83
2021/11/30 03:47:21;;;;;;;5.57;1.90;;;1.70;99.90;;;;;;5094559;28;20028;-83
2021/11/30 03:49:47;;;;;;;7.20;2.00;;;1.70;99.90;;;;;;5094348;28;20115;-83
2021/11/30 03:52:12;;;;;;;2.38;1.60;;;1.70;99.90;;;;;;5075761;28;20460;-82
2021/11/30 03:54:38;;;;;;;3.55;2.10;;;1.70;99.90;;;;;;5094347;28;20028;-83
2021/11/30 03:57:04;;;;;;;7.72;2.38;;;1.50;99.90;;;;;;5093925;28;20026;-81
2021/11/30 03:59:30;;;;;;;4.03;2.15;;;1.50;99.90;;;;;;5075711;28;20035;-83
2021/11/30 04:01:56;;;;;;;4.90;1.80;;;1.50;99.90;;;;;;5094195;28;20353;-82
2021/11/30 04:04:27;;;;;;;6.15;1.95;;;1.60;99.90;;;;;;5075663;28;20031;-83
2021/11/30 04:06:55;;;;;;;6.72;2.10;;;1.50;99.90;;;;;;5075618;28;20106;-83
2021/11/30 04:09:23;;;;;;;3.70;2.20;;;1.50;99.90;;;;;;5075582;28;20168;-85
2021/11/30 04:11:50;;;;;;;4.95;2.17;;;1.50;99.90;;;;;;5075430;28;20028;-83
2021/11/30 04:14:16;;;;;;;6.88;2.25;;;1.50;99.90;;;;;;5074915;28;20024;-82
2021/11/30 04:16:42;;;;;;;6.72;2.00;;;1.40;99.90;;;;;;5075484;28;20024;-82
2021/11/30 04:19:08;;;;;;;7.70;2.28;;;1.50;99.90;;;;;;5093844;28;20485;-84
2021/11/30 04:21:34;;;;;;;5.90;2.03;;;1.50;99.90;;;;;;5075470;28;20024;-83
2021/11/30 04:24:00;;;;;;;4.22;2.08;;;1.50;99.90;;;;;;5093824;28;20482;-82
2021/11/30 04:26:27;;;;;;;5.18;1.90;;;1.50;99.90;;;;;;5075359;28;20020;-83
2021/11/30 04:28:53;;;;;;;6.85;2.13;;;1.60;99.90;;;;;;5075276;28;20119;-82
2021/11/30 04:31:19;;;;;;;5.45;2.17;;;1.50;99.90;;;;;;5093421;28;20092;-82
2021/11/30 04:33:44;;;;;;;3.95;1.90;;;1.30;99.90;;;;;;5075175;28;20028;-85
2021/11/30 04:36:10;;;;;;;4.55;2.10;;;1.30;99.90;;;;;;5076020;28;20024;-85
2021/11/30 04:38:37;;;;;;;3.47;1.92;;;1.50;99.90;;;;;;5075251;28;20135;-84
2021/11/30 04:41:04;;;;;;;3.42;2.22;;;1.60;99.90;;;;;;5075253;28;20543;-84
2021/11/30 04:43:39;;;;;;;4.53;2.20;;;1.50;99.90;;;;;;5093440;28;20024;-85
2021/11/30 04:46:24;;;;;;;6.22;2.03;;;1.50;99.90;;;;;;5091485;28;20032;-85
2021/11/30 04:49:07;;;;;;;2.92;1.70;;;1.60;99.90;;;;;;5075050;28;20031;-83
2021/11/30 04:51:34;;;;;;;3.78;2.05;;;1.50;99.90;;;;;;5093223;28;20028;-82
2021/11/30 04:54:00;;;;;;;4.25;2.00;;;1.50;99.90;;;;;;5093450;28;20020;-83
2021/11/30 04:56:26;;;;;;;4.18;2.00;;;1.40;99.90;;;;;;5075022;28;20024;-83
2021/11/30 04:58:52;;;;;;;5.88;2.15;;;1.30;99.90;;;;;;5075016;28;20024;-84
2021/11/30 05:01:19;;;;;;;4.20;1.77;;;1.30;99.90;;;;;;5075007;28;20415;-86
2021/11/30 05:03:45;;;;;;;2.40;1.67;;;1.30;99.90;;;;;;5093430;28;20170;-82
2021/11/30 05:06:12;;;;;;;5.93;2.10;;;1.30;99.90;;;;;;5074934;28;20028;-83
2021/11/30 05:08:38;;;;;;;5.68;1.92;;;1.40;99.90;;;;;;5074997;28;20020;-84
2021/11/30 05:11:04;;;;;;;6.82;1.98;;;1.40;99.90;;;;;;5074921;28;20380;-84
2021/11/30 05:13:30;;;;;;;8.27;3.15;;;1.30;99.90;;;;;;5092881;28;20074;-83
2021/11/30 05:15:56;;;;;;;6.47;2.42;;;1.40;99.90;;;;;;5074835;28;20024;-84
2021/11/30 05:18:22;;;;;;;6.97;2.10;;;1.30;99.90;;;;;;5074792;28;20020;-81
2021/11/30 05:20:49;;;;;;;4.15;2.08;;;1.30;99.90;;;;;;5093034;28;20024;-83
2021/11/30 05:23:22;;;;;;;9.27;2.63;;;1.30;99.90;;;;;;5074756;28;20039;-83
2021/11/30 05:25:48;;;;;;;4.32;2.50;;;1.20;99.90;;;;;;5074747;28;20020;-81
2021/11/30 05:28:14;;;;;;;5.80;2.13;;;1.20;99.90;;;;;;5078254;28;20032;-82
2021/11/30 05:30:39;;;;;;;4.68;2.58;;;1.20;99.90;;;;;;5078826;28;20475;-82
2021/11/30 05:33:07;;;;;;;4.47;2.40;;;1.30;99.90;;;;;;5096577;28;20028;-83
2021/11/30 05:35:33;;;;;;;5.38;2.65;;;1.30;99.90;;;;;;5096720;28;20051;-81
2021/11/30 05:37:59;;;;;;;5.60;2.65;;;1.30;99.90;;;;;;5078240;28;20162;-83
2021/11/30 05:40:26;;;;;;;3.58;2.65;;;1.20;99.90;;;;;;5096888;28;20028;-82
2021/11/30 05:42:52;;;;;;;5.55;2.67;;;1.10;99.90;;;;;;5096563;28;20035;-82
2021/11/30 05:45:18;;;;;;;9.23;2.90;;;1.00;99.90;;;;;;5078090;28;20119;-84
2021/11/30 05:47:45;;;;;;;7.00;2.60;;;1.00;99.90;;;;;;5095820;28;20028;-82
2021/11/30 05:50:10;;;;;;;6.68;2.55;;;1.10;99.90;;;;;;5078218;28;20165;-83
2021/11/30 05:52:36;;;;;;;5.55;2.63;;;1.20;99.90;;;;;;5096306;28;20099;-83
2021/11/30 05:55:02;;;;;;;5.43;2.88;;;1.00;99.90;;;;;;5078067;28;20016;-83
2021/11/30 05:57:28;;;;;;;6.20;3.15;;;0.80;99.90;;;;;;5078061;28;20031;-82
2021/11/30 05:59:57;;;;;;;5.15;2.97;;;0.70;99.90;;;;;;5096150;28;20103;-83
2021/11/30 06:02:23;;;;;;;4.82;3.00;;;0.80;99.90;;;;;;5078004;28;20020;-81
2021/11/30 06:04:49;;;;;;;4.03;3.17;;;0.80;99.90;;;;;;5077947;28;20020;-81
2021/11/30 06:07:14;;;;;;;6.68;3.33;;;0.90;99.90;;;;;;5096150;28;20089;-83
2021/11/30 06:09:40;;;;;;;4.93;2.90;;;0.90;99.90;;;;;;5096060;28;20055;-80
2021/11/30 06:12:06;;;;;;;10.55;3.72;;;0.90;99.90;;;;;;5095852;28;20030;-82
2021/11/30 06:14:32;;;;;;;4.72;2.92;;;1.00;99.90;;;;;;5077807;28;20048;-81
2021/11/30 06:16:58;;;;;;;5.50;2.90;;;1.00;99.90;;;;;;5096414;28;20442;-81
2021/11/30 06:19:24;;;;;;;4.45;3.08;;;0.90;99.90;;;;;;5077597;28;20027;-82
2021/11/30 06:21:50;;;;;;;4.80;3.28;;;0.80;99.90;;;;;;5077685;28;20129;-81
2021/11/30 06:24:17;;;;;;;7.30;3.30;;;0.80;99.90;;;;;;5095785;28;20044;-84
2021/11/30 06:26:44;;;;;;;3.78;2.90;;;0.90;99.90;;;;;;5077504;28;20016;-83
2021/11/30 06:29:09;;;;;;;5.70;2.97;;;0.90;99.90;;;;;;5077718;28;20036;-82
2021/11/30 06:31:35;;;;;;;5.47;3.10;;;0.90;99.90;;;;;;5077483;28;20024;-80
2021/11/30 06:34:01;;;;;;;5.38;3.20;;;0.90;99.90;;;;;;5077376;28;20028;-82
2021/11/30 06:36:27;;;;;;;5.95;3.08;;;0.90;99.90;;;;;;5077406;28;20060;-83
2021/11/30 06:38:55;;;;;;;4.13;2.90;;;0.90;99.90;;;;;;5076721;28;20407;-82
2021/11/30 06:41:21;;;;;;;4.47;3.10;;;0.90;99.90;;;;;;5077208;28;20024;-81
2021/11/30 06:43:46;;;;;;;5.32;3.05;;;0.90;99.90;;;;;;5077182;28;20483;-81
2021/11/30 06:46:12;;;;;;;5.35;3.60;;;0.80;99.90;;;;;;5077200;28;20028;-82
2021/11/30 06:48:38;;;;;;;3.90;2.53;;;0.80;99.90;;;;;;5077172;28;20029;-81
2021/11/30 06:51:03;;;;;;;3.47;2.70;;;0.90;99.90;;;;;;5095819;28;20031;-82
2021/11/30 06:53:33;;;;;;;4.07;2.58;;;0.90;99.90;;;;;;5077633;28;20364;-84
2021/11/30 06:55:59;;;;;;;5.05;3.15;;;0.90;99.90;;;;;;5095744;28;20100;-84
2021/11/30 06:58:25;;;;;;;5.20;2.40;;;0.80;99.90;;;;;;5095442;28;20048;-82
2021/11/30 07:00:52;;;;;;;5.55;2.15;;;0.80;99.90;;;;;;5076947;28;20031;-82
2021/11/30 07:03:21;;;;;;;3.50;2.60;;;0.80;99.90;;;;;;5077097;28;20032;-83
2021/11/30 07:05:51;;;;;;;6.28;2.70;;;0.90;99.90;;;;;;5095060;28;20027;-84
2021/11/30 07:08:21;;;;;;;4.82;2.72;;;1.00;99.90;;;;;;5076803;28;20021;-84
2021/11/30 07:11:01;;;;;;;4.35;2.50;;;1.00;99.90;;;;;;5076637;28;20062;-84
2021/11/30 07:13:28;;;;;;;5.40;2.53;;;1.00;99.90;;;;;;5095302;28;20027;-84
2021/11/30 07:16:02;;;;;;;3.28;2.50;;;0.90;99.90;;;;;;5076639;28;20032;-83
2021/11/30 07:18:30;;;;;;;4.10;2.72;;;1.00;99.90;;;;;;5076607;28;20059;-81
2021/11/30 07:20:56;;;;;;;3.88;2.20;;;1.00;99.90;;;;;;5094646;28;20020;-83
2021/11/30 07:23:22;;;;;;;3.38;2.33;;;1.00;99.90;;;;;;5094639;28;20020;-83
2021/11/30 07:25:52;;;;;;;4.72;2.13;;;0.90;99.90;;;;;;5094572;28;20039;-81
2021/11/30 07:28:28;;;;;;;3.25;2.28;;;0.80;99.90;;;;;;5094778;28;20052;-82
2021/11/30 07:30:54;;;;;;;2.10;1.90;;;0.90;99.90;;;;;;5076352;28;20032;-82
2021/11/30 07:33:21;;;;;;;2.85;2.10;;;1.00;99.90;;;;;;5076406;28;20480;-84
2021/11/30 07:35:47;;;;;;;2.47;2.10;;;1.00;99.90;;;;;;5094500;28;20024;-83
2021/11/30 07:38:12;;;;;;;1.98;1.75;;;1.00;99.90;;;;;;5094178;28;20121;-82
2021/11/30 07:40:38;;;;;;;2.78;1.75;;;0.90;99.90;;;;;;5076106;28;20024;-84
2021/11/30 07:43:05;;;;;;;3.50;2.28;;;0.80;99.90;;;;;;5094349;28;20055;-82
2021/11/30 07:45:32;;;;;;;5.13;1.90;;;0.90;99.90;;;;;;5094128;28;20472;-81
2021/11/30 07:47:58;;;;;;;4.22;1.90;;;1.00;99.90;;;;;;5075876;28;20020;-81
2021/11/30 07:50:24;;;;;;;4.13;2.10;;;1.00;99.90;;;;;;5093889;28;20107;-83
2021/11/30 07:52:49;;;;;;;2.38;2.05;;;1.00;99.90;;;;;;5094079;28;20095;-82
2021/11/30 07:55:17;;;;;;;3.28;1.73;;;1.00;99.90;;;;;;5075855;28;20495;-83
2021/11/30 07:57:44;;;;;;;3.42;2.28;;;1.00;99.90;;;;;;5094021;28;20024;-82
2021/11/30 08:00:13;;;;;;;3.20;2.10;;;0.90;99.90;;;;;;5075783;28;20521;-84
2021/11/30 08:02:40;;;;;;;4.57;2.47;;;0.90;99.90;;;;;;5075662;28;20119;-81
2021/11/30 08:05:06;;;;;;;2.88;2.05;;;1.10;99.90;;;;;;5076401;28;20085;-82
2021/11/30 08:07:32;;;;;;;5.93;1.77;;;1.00;99.90;;;;;;5093827;28;20024;-82
2021/11/30 08:09:59;;;;;;;2.30;1.65;;;1.10;99.90;;;;;;5093772;28;20099;-87
2021/11/30 08:12:25;;;;;;;1.70;1.48;;;1.20;99.90;;;;;;5093699;28;20036;-81
2021/11/30 08:14:51;;;;;;;2.75;1.85;;;1.10;99.90;;;;;;5075477;28;20024;-81
2021/11/30 08:17:19;;;;;;;2.53;1.92;;;1.10;99.90;;;;;;5093648;28;20024;-85
2021/11/30 08:19:46;;;;;;;2.13;1.80;;;1.30;99.90;;;;;;5075995;28;20521;-82
2021/11/30 08:22:12;;;;;;;2.50;1.90;;;1.30;99.90;;;;;;5093776;28;20020;-84
2021/11/30 08:24:38;;;;;;;4.07;2.08;;;1.20;99.90;;;;;;5075808;28;20020;-83
2021/11/30 08:27:05;;;;;;;3.63;1.60;;;1.20;99.90;;;;;;5075296;28;20020;-81
2021/11/30 08:29:38;;;;;;;2.40;1.70;;;1.20;99.90;;;;;;5093447;28;20031;-80
2021/11/30 08:32:05;;;;;;;3.20;1.73;;;1.20;99.90;;;;;;5075330;28;20521;-81
2021/11/30 08:34:31;;;;;;;3.05;1.90;;;1.20;99.90;;;;;;5075279;28;20487;-80
2021/11/30 08:36:56;;;;;;;2.22;1.60;;;1.20;99.90;;;;;;5093219;28;20044;-80
2021/11/30 08:39:22;;;;;;;3.42;2.35;;;1.20;99.90;;;;;;5075244;28;20115;-83
2021/11/30 08:41:48;;;;;;;2.25;1.95;;;1.30;99.90;;;;;;5075094;28;20484;-81
2021/11/30 08:44:14;;;;;;;2.65;2.00;;;1.40;99.90;;;;;;5075113;28;20113;-79
2021/11/30 08:46:39;;;;;;;5.05;1.90;;;1.40;99.90;;;;;;5093236;28;20090;-81
2021/11/30 08:49:05;;;;;;;2.45;1.58;;;1.60;99.90;;;;;;5075075;28;20099;-81
2021/11/30 08:51:31;;;;;;;2.13;1.75;;;1.50;99.90;;;;;;5093161;28;20070;-79
2021/11/30 08:53:57;;;;;;;2.28;1.60;;;1.50;99.90;;;;;;5093403;28;20027;-83
2021/11/30 08:56:23;;;;;;;3.47;1.77;;;1.50;99.90;;;;;;5093392;28;20052;-80
2021/11/30 08:58:51;;;;;;;2.30;1.67;;;1.50;99.90;;;;;;5093684;28;20024;-78
2021/11/30 09:01:19;;;;;;;2.30;1.75;;;1.50;99.90;;;;;;5077178;28;20024;-81
2021/11/30 09:03:45;;;;;;;3.30;1.63;;;1.60;99.90;;;;;;5097169;28;20024;-81
2021/11/30 09:06:11;;;;;;;2.20;1.80;;;1.50;99.90;;;;;;5097456;28;20032;-79
2021/11/30 09:08:36;;;;;;;4.57;2.92;;;1.50;99.90;;;;;;5097178;28;20016;-80
2021/11/30 09:11:02;;;;;;;4.65;2.17;;;1.50;99.90;;;;;;5078985;28;20384;-82
2021/11/30 09:13:28;;;;;;;2.67;1.50;;;1.60;99.90;;;;;;5078917;28;20387;-79
2021/11/30 09:15:54;;;;;;;2.47;1.40;;;1.60;99.90;;;;;;5097064;28;20030;-79
2021/11/30 09:18:20;;;;;;;1.38;1.27;;;1.60;99.90;;;;;;5096967;28;20031;-79
2021/11/30 09:20:46;;;;;;;2.10;1.63;;;1.50;99.90;;;;;;5078776;28;20102;-80
2021/11/30 09:23:12;;;;;;;3.50;2.00;;;1.60;99.90;;;;;;5078625;28;20028;-81
2021/11/30 09:25:38;;;;;;;2.00;1.50;;;1.60;99.90;;;;;;5096834;28;20099;-77
2021/11/30 09:28:05;;;;;;;3.10;1.70;;;1.60;99.90;;;;;;5097102;28;20432;-78
2021/11/30 09:30:34;;;;;;;4.32;2.05;;;1.60;99.90;;;;;;5078543;28;20384;-79
2021/11/30 09:33:00;;;;;;;2.10;1.70;;;1.60;99.90;;;;;;5078516;28;20392;-78
2021/11/30 09:35:26;;;;;;;2.97;1.73;;;1.70;99.90;;;;;;5096644;28;20092;-78
2021/11/30 09:37:55;;;;;;;3.60;1.90;;;1.70;99.90;;;;;;5096395;28;20051;-77
2021/11/30 09:40:26;;;;;;;2.15;1.70;;;1.80;99.90;;;;;;5096814;28;20028;-78
2021/11/30 09:42:52;;;;;;;3.55;1.52;;;1.90;99.90;;;;;;5096642;28;20031;-78
2021/11/30 09:45:18;;;;;;;3.65;1.67;;;2.00;99.90;;;;;;5096479;28;20020;-76
2021/11/30 09:47:45;;;;;;;2.58;1.77;;;1.90;99.90;;;;;;5096425;28;20077;-79
2021/11/30 09:50:16;;;;;;;3.45;1.60;;;2.00;99.90;;;;;;5096363;28;20071;-78
2021/11/30 09:52:43;;;;;;;1.48;1.38;;;2.00;99.90;;;;;;5078223;28;20049;-78
2021/11/30 09:55:14;;;;;;;2.25;1.45;;;2.00;99.90;;;;;;5096306;28;20435;-79
2021/11/30 09:57:40;;;;;;;2.55;1.33;;;2.20;99.90;;;;;;5078129;28;20020;-79
2021/11/30 10:00:08;;;;;;;1.63;1.13;;;2.10;99.90;;;;;;5077976;28;20114;-77
2021/11/30 10:02:34;;;;;;;2.17;1.80;;;2.10;99.90;;;;;;5096284;28;20024;-77
2021/11/30 10:05:00;;;;;;;4.55;1.60;;;2.10;99.90;;;;;;5096591;28;20016;-80
2021/11/30 10:07:44;;;;;;;1.75;1.27;;;2.00;99.90;;;;;;5096084;28;20077;-81
2021/11/30 10:10:13;;;;;;;1.25;1.10;;;2.10;99.90;;;;;;5077937;28;20024;-80
2021/11/30 10:12:39;;;;;;;2.25;1.00;;;2.20;99.90;;;;;;5095288;28;20024;-78
2021/11/30 10:15:10;;;;;;;1.73;1.00;;;2.10;99.90;;;;;;5077778;28;20028;-79
2021/11/30 10:17:37;;;;;;;1.55;1.23;;;2.20;99.90;;;;;;5077714;28;20020;-77
2021/11/30 10:20:11;;;;;;;1.23;1.13;;;2.10;99.90;;;;;;5095812;28;20020;-79
2021/11/30 10:22:45;;;;;;;;;;;2.10;99.90;;;;;;5096408;28;20020;-78
2021/11/30 10:25:21;;;;;;;1.23;1.00;;;2.20;99.90;;;;;;5095716;28;19904;-77
2021/11/30 10:27:52;;;;;;;1.90;0.95;;;2.10;99.90;;;;;;5095964;28;20034;-78
2021/11/30 10:30:26;;;;;;;2.40;1.10;;;2.20;99.90;;;;;;5095663;28;20057;-79
2021/11/30 10:32:54;;;;;;;1.42;1.00;;;2.10;99.90;;;;;;5095868;28;20097;-79
2021/11/30 10:35:23;;;;;;;1.45;1.00;;;2.10;99.90;;;;;;5077791;28;20036;-78
2021/11/30 10:37:49;;;;;;;1.20;1.00;;;2.00;99.90;;;;;;5077101;28;20043;-79
2021/11/30 10:40:18;;;;;;;3.20;1.35;;;2.10;99.90;;;;;;5095328;28;20031;-82
2021/11/30 10:43:12;;;;;;;1.23;1.13;;;2.10;99.90;;;;;;5095327;28;20024;-78
2021/11/30 10:45:46;;;;;;;1.50;1.15;;;2.00;99.90;;;;;;5072356;28;20090;-81
2021/11/30 10:48:26;;;;;;;2.13;1.40;;;2.00;99.90;;;;;;5095804;28;20506;-78
2021/11/30 10:50:56;;;;;;;1.35;1.17;;;1.90;99.90;;;;;;5095783;28;20150;-79
2021/11/30 10:53:23;;;;;;;1.30;1.20;;;2.00;99.90;;;;;;5095435;28;20020;-83
2021/11/30 10:55:54;;;;;;;1.65;1.55;;;2.00;99.90;;;;;;5076992;28;20119;-83
2021/11/30 10:58:26;;;;;;;2.70;1.35;;;2.10;99.90;;;;;;5095146;28;20023;-78
2021/11/30 11:00:54;;;;;;;1.75;1.35;;;2.00;99.90;;;;;;5076931;28;20395;-82
2021/11/30 11:03:23;;;;;;;11.48;4.65;;;2.00;99.90;;;;;;5076800;28;20545;-79
2021/11/30 11:08:48;;;;;;;7.72;2.45;;;2.00;99.90;;;;;;5094934;28;20058;-78
2021/11/30 11:11:20;;;;;;;2.97;2.10;;;2.00;99.90;;;;;;5076652;28;20369;-81
2021/11/30 11:13:47;;;;;;;1.92;1.20;;;1.90;99.90;;;;;;5094776;28;20035;-79
2021/11/30 11:16:37;;;;;;;5.13;2.47;;;1.90;99.90;;;;;;5094669;28;20095;-83
2021/11/30 11:19:05;;;;;;;2.35;1.60;;;1.90;99.90;;;;;;5095037;28;20024;-83
2021/11/30 11:21:35;;;;;;;2.75;1.52;;;2.00;99.90;;;;;;5076511;28;20031;-79
2021/11/30 11:24:15;;;;;;;1.50;1.13;;;2.00;99.90;;;;;;5094509;28;20586;-79
2021/11/30 11:26:47;;;;;;;2.85;1.83;;;1.90;99.90;;;;;;5076360;28;20016;-80
2021/11/30 11:29:18;;;;;;;3.97;1.70;;;2.00;99.90;;;;;;5094450;28;20016;-83
2021/11/30 11:31:47;;;;;;;1.50;1.17;;;2.00;99.90;;;;;;5094285;28;20380;-81
2021/11/30 11:34:16;;;;;;;1.90;1.30;;;1.90;99.90;;;;;;5094349;28;20095;-83
2021/11/30 11:36:47;;;;;;;1.85;1.00;;;2.00;99.90;;;;;;5075987;28;20058;-81
2021/11/30 11:39:16;;;;;;;2.90;1.70;;;1.90;99.90;;;;;;5076115;28;20031;-82
2021/11/30 11:41:42;;;;;;;1.48;1.30;;;2.00;99.90;;;;;;5076147;28;20043;-82
2021/11/30 11:44:08;;;;;;;2.25;1.73;;;1.90;99.90;;;;;;5076061;28;20174;-82
2021/11/30 11:46:37;;;;;;;2.70;1.33;;;2.00;99.90;;;;;;5075992;28;20057;-83
2021/11/30 11:49:06;;;;;;;2.00;1.30;;;2.00;99.90;;;;;;5094127;28;20016;-82
2021/11/30 11:51:42;;;;;;;1.38;1.27;;;2.10;99.90;;;;;;5094014;28;20024;-82
2021/11/30 11:54:19;;;;;;;2.55;1.38;;;2.10;99.90;;;;;;5094339;28;20154;-81
2021/11/30 11:56:56;;;;;;;2.55;1.40;;;2.10;99.90;;;;;;5075907;28;20028;-80
2021/11/30 11:59:22;;;;;;;1.50;1.40;;;2.10;99.90;;;;;;5075906;28;20027;-81
2021/11/30 12:02:20;;;;;;;1.02;0.93;;;2.20;99.90;;;;;;5075641;28;20028;-80
2021/11/30 12:04:53;;;;;;;1.17;1.08;;;2.20;99.90;;;;;;5094186;28;20023;-80
2021/11/30 12:07:21;;;;;;;1.33;1.17;;;2.30;99.90;;;;;;5075650;28;20020;-82
2021/11/30 12:09:47;;;;;;;1.73;1.50;;;2.20;99.90;;;;;;5075619;28;20115;-76
2021/11/30 12:12:24;;;;;;;1.65;1.15;;;2.10;99.90;;;;;;5032087;28;20112;-79
2021/11/30 12:15:00;;;;;;;1.05;1.00;;;2.20;99.90;;;;;;5015155;28;20045;-78
2021/11/30 12:17:25;;;;;;;2.85;1.40;;;2.30;99.90;;;;;;5015097;28;20033;-78
2021/11/30 12:20:11;;;;;;;1.60;1.35;;;2.20;99.90;;;;;;5031360;28;20083;-79
2021/11/30 12:22:56;;;;;;;1.13;1.02;;;2.20;99.90;;;;;;5014265;28;20037;-79
2021/11/30 12:25:47;;;;;;;3.90;1.60;;;2.30;99.90;;;;;;5014808;28;20029;-78
2021/11/30 12:28:34;;;;;;;2.30;1.13;;;2.30;99.90;;;;;;5031739;28;20037;-78
2021/11/30 12:31:00;;;;;;;1.70;1.30;;;2.30;99.90;;;;;;5014741;28;20025;-78
2021/11/30 12:33:37;;;;;;;1.63;1.33;;;2.20;99.90;;;;;;5031417;28;20029;-77
2021/11/30 12:36:09;;;;;;;1.23;1.13;;;2.20;99.90;;;;;;5014195;28;20556;-78
2021/11/30 12:38:50;;;;;;;1.20;1.10;;;2.20;99.90;;;;;;5014422;28;20080;-79
2021/11/30 12:41:34;;;;;;;2.63;1.50;;;2.10;99.90;;;;;;5011473;28;20041;-78
2021/11/30 12:44:14;;;;;;;1.65;1.40;;;2.20;99.90;;;;;;5045692;28;20041;-79
2021/11/30 12:46:58;;;;;;;2.05;1.05;;;2.20;99.90;;;;;;5051729;28;20091;-78
2021/11/30 12:49:24;;;;;;;1.23;1.13;;;2.20;99.90;;;;;;5051672;28;20428;-79
2021/11/30 12:52:17;;;;;;;2.90;1.70;;;2.30;99.90;;;;;;5052831;28;20029;-79
2021/11/30 12:54:48;;;;;;;1.42;1.20;;;2.20;99.90;;;;;;5051574;28;20033;-79
2021/11/30 12:57:38;;;;;;;2.70;1.50;;;2.20;99.90;;;;;;5052948;28;20492;-77
2021/11/30 13:00:11;;;;;;;2.60;1.50;;;2.20;99.90;;;;;;5042849;28;20044;-78
2021/11/30 13:02:46;;;;;;;2.03;1.20;;;2.40;99.90;;;;;;5051521;28;20033;-78
2021/11/30 13:05:20;;;;;;;1.17;0.95;;;2.30;99.90;;;;;;5052753;28;20029;-78
2021/11/30 13:07:52;;;;;;;2.53;1.35;;;2.30;99.90;;;;;;5052891;28;20070;-79
2021/11/30 13:10:33;;;;;;;2.28;1.33;;;2.30;99.90;;;;;;5051464;28;20542;-78
2021/11/30 13:13:21;;;;;;;2.35;1.13;;;2.30;99.90;;;;;;5051542;28;20139;-79